Time;durP1;ratioP1;P1;durP2;ratioP2;P2;SDS_P1;SDS_P2;PMS_P1;PMS_P2;Temp;Humidity;BMP_temperature;BMP_pressure;BME280_temperature;BME280_humidity;BME280_pressure;Samples;Min_cycle;Max_cycle;Signal;HPM_P1;HPM_P2
2021/05/10 00:00:49;;;;;;;;;1.25;1.25;;;;;20.11;25.65;98630.06;4983645;28;8827;-46
2021/05/10 00:03:15;;;;;;;;;1.80;1.80;;;;;20.09;25.69;98624.97;4997386;28;9527;-46
2021/05/10 00:05:41;;;;;;;;;1.00;1.00;;;;;20.07;25.53;98610.03;4998852;28;8769;-46
2021/05/10 00:08:07;;;;;;;;;1.75;1.75;;;;;20.05;25.75;98619.41;4985155;28;8815;-46
2021/05/10 00:10:33;;;;;;;;;2.00;2.00;;;;;20.04;25.60;98606.06;4981501;28;8834;-46
2021/05/10 00:12:59;;;;;;;;;1.00;1.00;;;;;20.03;25.62;98637.31;4974290;28;8807;-46
2021/05/10 00:15:25;;;;;;;;;2.00;2.00;;;;;20.00;25.60;98622.41;4971880;28;8817;-46
2021/05/10 00:17:50;;;;;;;;;1.00;1.00;;;;;19.98;25.63;98619.25;4986007;28;8776;-46
2021/05/10 00:20:16;;;;;;;;;1.50;1.50;;;;;19.97;25.63;98614.91;5001080;28;8822;-47
2021/05/10 00:22:41;;;;;;;;;1.00;1.00;;;;;19.96;25.79;98610.56;4991791;28;8838;-46
2021/05/10 00:25:07;;;;;;;;;2.00;2.00;;;;;19.94;25.66;98612.88;5001321;28;9125;-46
2021/05/10 00:27:32;;;;;;;;;1.00;1.00;;;;;19.93;25.80;98621.44;4996720;28;8811;-47
2021/05/10 00:29:58;;;;;;;;;1.50;1.50;;;;;19.91;25.82;98618.25;4992420;28;8775;-46
2021/05/10 00:32:23;;;;;;;;;1.00;1.00;;;;;19.89;25.68;98604.94;4999158;28;9699;-46
2021/05/10 00:34:49;;;;;;;;;1.75;1.75;;;;;19.88;25.68;98610.78;4997051;28;9009;-46
2021/05/10 00:37:15;;;;;;;;;1.00;1.00;;;;;19.86;25.76;98614.66;4998154;28;8840;-46
2021/05/10 00:39:40;;;;;;;;;1.00;1.00;;;;;19.85;25.77;98615.00;5001904;28;8813;-46
2021/05/10 00:42:06;;;;;;;;;1.25;1.25;;;;;19.83;25.92;98612.63;4998425;28;8831;-46
2021/05/10 00:44:31;;;;;;;;;2.00;1.00;;;;;19.83;25.80;98606.38;4993701;28;8810;-46
2021/05/10 00:46:57;;;;;;;;;1.25;1.25;;;;;19.80;25.92;98607.06;4997858;28;8888;-46
2021/05/10 00:49:22;;;;;;;;;1.60;1.60;;;;;19.79;25.89;98611.75;4989511;28;8804;-47
2021/05/10 00:51:49;;;;;;;;;1.25;1.25;;;;;19.77;25.80;98607.78;4995391;28;8792;-46
2021/05/10 00:54:15;;;;;;;;;1.80;1.80;;;;;19.76;25.81;98611.69;5000806;28;8831;-46
2021/05/10 00:56:40;;;;;;;;;1.60;1.60;;;;;19.74;25.93;98614.75;4993644;28;8768;-46
2021/05/10 00:59:07;;;;;;;;;1.00;1.00;;;;;19.72;25.89;98621.69;5001159;28;8803;-46
2021/05/10 01:01:32;;;;;;;;;1.80;1.80;;;;;19.73;25.96;98615.09;5001064;28;8828;-46
2021/05/10 01:03:58;;;;;;;;;2.00;2.00;;;;;19.72;26.10;98627.16;4994078;28;8799;-46
2021/05/10 01:06:24;;;;;;;;;1.60;1.60;;;;;19.70;26.10;98637.66;4995599;28;8796;-46
2021/05/10 01:08:49;;;;;;;;;1.25;1.25;;;;;19.68;26.12;98632.53;5001076;28;8793;-46
2021/05/10 01:11:16;;;;;;;;;2.00;2.00;;;;;19.67;26.08;98636.44;4995704;28;8824;-46
2021/05/10 01:13:41;;;;;;;;;1.00;1.00;;;;;19.65;26.14;98627.81;4998966;28;8858;-46
2021/05/10 01:16:07;;;;;;;;;2.00;2.00;;;;;19.64;25.98;98621.50;4983105;28;8819;-47
2021/05/10 01:18:33;;;;;;;;;1.00;1.00;;;;;19.58;26.08;98627.63;4976014;28;9507;-46
2021/05/10 01:21:00;;;;;;;;;2.00;2.00;;;;;19.63;26.21;98639.09;4977224;28;8795;-46
2021/05/10 01:23:25;;;;;;;;;1.00;1.00;;;;;19.60;26.19;98634.31;4982463;28;8842;-46
2021/05/10 01:25:51;;;;;;;;;1.50;1.50;;;;;19.59;26.07;98623.72;4997301;28;8953;-47
2021/05/10 01:28:17;;;;;;;;;1.75;1.75;;;;;19.59;26.11;98613.56;4999854;28;10289;-46
2021/05/10 01:30:47;;;;;;;;;2.00;2.00;;;;;19.57;26.07;98615.88;5000419;28;8788;-46
2021/05/10 01:33:13;;;;;;;;;1.00;1.00;;;;;19.56;26.09;98614.31;4992374;28;8792;-46
2021/05/10 01:35:40;;;;;;;;;1.25;1.25;;;;;19.54;26.11;98619.34;5000612;28;8747;-46
2021/05/10 01:38:07;;;;;;;;;1.40;1.00;;;;;19.53;26.30;98609.53;4997030;28;8898;-46
2021/05/10 01:40:33;;;;;;;;;1.00;1.00;;;;;19.52;26.40;98618.09;4992873;28;8806;-46
2021/05/10 01:42:59;;;;;;;;;2.00;2.00;;;;;19.51;26.29;98617.28;5000952;28;8808;-46
2021/05/10 01:45:24;;;;;;;;;1.60;1.60;;;;;19.51;26.23;98619.22;4998658;28;8819;-46
2021/05/10 01:47:57;;;;;;;;;2.00;2.00;;;;;19.51;26.10;98620.03;4999176;28;8787;-47
2021/05/10 01:50:23;;;;;;;;;1.20;1.20;;;;;19.48;26.35;98618.78;4997804;28;8804;-45
2021/05/10 01:52:48;;;;;;;;;1.00;1.00;;;;;19.47;26.19;98610.94;4998280;28;9615;-46
2021/05/10 01:55:16;;;;;;;;;2.00;2.00;;;;;19.46;26.27;98607.41;4986887;28;8795;-46
2021/05/10 01:57:47;;;;;;;;;1.80;1.80;;;;;19.45;26.33;98602.28;5000913;28;8801;-46
2021/05/10 02:00:15;;;;;;;;;1.20;1.20;;;;;19.43;26.42;98605.38;4996388;28;8947;-46
2021/05/10 02:02:42;;;;;;;;;1.00;1.00;;;;;19.42;26.22;98608.47;4998406;28;8762;-46
2021/05/10 02:05:17;;;;;;;;;2.00;2.00;;;;;19.41;26.26;98612.34;4995597;28;8814;-46
2021/05/10 02:07:45;;;;;;;;;2.00;2.00;;;;;19.40;26.36;98616.22;4978405;28;8803;-46
2021/05/10 02:10:16;;;;;;;;;2.00;2.00;;;;;19.39;26.36;98620.13;4989227;28;8945;-46
2021/05/10 02:12:51;;;;;;;;;1.60;1.60;;;;;19.38;26.45;98627.50;5003886;28;8781;-46
2021/05/10 02:15:17;;;;;;;;;1.60;1.60;;;;;19.37;26.31;98633.34;4998035;28;8790;-46
2021/05/10 02:17:42;;;;;;;;;2.00;2.00;;;;;19.36;26.57;98629.00;4994930;28;8755;-46
2021/05/10 02:20:08;;;;;;;;;2.00;2.00;;;;;19.35;26.31;98630.16;4980981;28;9611;-46
2021/05/10 02:22:34;;;;;;;;;1.00;1.00;;;;;19.35;26.62;98639.16;4982363;28;8853;-46
2021/05/10 02:24:59;;;;;;;;;2.00;2.00;;;;;19.33;26.64;98637.91;4994175;28;8801;-48
2021/05/10 02:27:24;;;;;;;;;2.00;2.00;;;;;19.33;26.66;98637.91;4999935;28;8799;-46
2021/05/10 02:29:49;;;;;;;;;1.00;1.00;;;;;19.31;26.38;98635.53;5004726;28;8797;-46
2021/05/10 02:32:15;;;;;;;;;1.50;1.50;;;;;19.30;26.57;98632.00;5000287;28;8804;-46
2021/05/10 02:34:41;;;;;;;;;1.40;1.40;;;;;19.29;26.53;98638.63;5003209;28;9604;-46
2021/05/10 02:37:06;;;;;;;;;2.00;2.00;;;;;19.29;26.67;98646.03;5001684;28;8788;-46
2021/05/10 02:39:31;;;;;;;;;1.00;1.00;;;;;19.27;26.69;98640.91;5001661;28;8828;-46
2021/05/10 02:41:57;;;;;;;;;1.50;1.50;;;;;19.27;26.71;98651.06;4995058;28;8787;-46
2021/05/10 02:44:22;;;;;;;;;2.00;2.00;;;;;19.27;26.65;98656.53;4982431;28;9632;-46
2021/05/10 02:46:48;;;;;;;;;1.25;1.25;;;;;19.26;26.53;98644.78;5000054;28;8824;-47
2021/05/10 02:49:13;;;;;;;;;1.00;1.00;;;;;19.25;26.48;98645.94;5004469;28;8803;-46
2021/05/10 02:51:38;;;;;;;;;2.00;2.00;;;;;19.25;26.62;98645.94;5000054;28;8796;-46
2021/05/10 02:54:04;;;;;;;;;2.00;2.00;;;;;19.25;26.51;98648.66;4991274;28;8904;-46
2021/05/10 02:56:29;;;;;;;;;2.25;2.25;;;;;19.24;26.59;98649.00;4979742;28;8795;-46
2021/05/10 02:58:55;;;;;;;;;1.00;1.00;;;;;19.24;26.76;98652.56;4999002;28;10670;-46
2021/05/10 03:01:21;;;;;;;;;2.00;2.00;;;;;19.25;26.64;98643.19;5000222;28;8849;-46
2021/05/10 03:03:46;;;;;;;;;2.00;1.80;;;;;19.22;26.66;98637.63;4996459;28;8977;-46
2021/05/10 03:06:12;;;;;;;;;1.00;1.00;;;;;19.22;26.81;98626.69;5000027;28;8887;-46
2021/05/10 03:08:37;;;;;;;;;2.00;2.00;;;;;19.22;26.66;98632.94;4995081;28;8751;-46
2021/05/10 03:11:02;;;;;;;;;1.50;1.50;;;;;19.22;26.85;98637.63;5004933;28;8788;-46
2021/05/10 03:13:28;;;;;;;;;2.00;2.00;;;;;19.21;26.68;98642.31;5003307;28;8796;-46
2021/05/10 03:15:53;;;;;;;;;2.00;2.00;;;;;19.21;26.85;98645.03;4995996;28;9960;-46
2021/05/10 03:18:18;;;;;;;;;1.25;1.25;;;;;19.20;26.90;98624.31;4990874;28;8833;-46
2021/05/10 03:20:44;;;;;;;;;2.50;2.50;;;;;19.19;26.87;98622.75;4974929;28;8768;-46
2021/05/10 03:23:09;;;;;;;;;1.00;1.00;;;;;19.19;26.76;98628.22;5005625;28;8804;-46
2021/05/10 03:25:35;;;;;;;;;2.00;2.00;;;;;19.20;26.71;98629.78;5001135;28;9073;-46
2021/05/10 03:28:00;;;;;;;;;1.00;1.00;;;;;19.19;26.98;98633.69;5003393;28;8924;-46
2021/05/10 03:30:25;;;;;;;;;2.00;2.00;;;;;19.17;26.76;98624.22;4997938;28;8775;-46
2021/05/10 03:32:52;;;;;;;;;1.00;1.00;;;;;19.18;26.65;98623.09;4993811;28;8806;-46
2021/05/10 03:35:18;;;;;;;;;1.00;1.00;;;;;19.18;26.96;98642.22;4982692;28;9035;-42
2021/05/10 03:37:44;;;;;;;;;2.00;2.00;;;;;19.17;26.79;98640.63;4976202;28;8814;-46
2021/05/10 03:40:12;;;;;;;;;2.00;2.00;;;;;19.16;26.76;98633.59;4992959;28;8807;-46
2021/05/10 03:42:41;;;;;;;;;1.00;1.00;;;;;19.16;26.92;98609.75;4985853;28;8799;-46
2021/05/10 03:45:08;;;;;;;;;2.00;2.00;;;;;19.16;26.87;98615.22;4981600;28;8860;-46
2021/05/10 03:47:40;;;;;;;;;1.00;1.00;;;;;19.16;26.87;98622.66;4978387;28;8821;-46
2021/05/10 03:50:17;;;;;;;;;1.00;1.00;;;;;19.16;27.03;98628.13;5002223;28;8823;-46
2021/05/10 03:52:44;;;;;;;;;2.00;2.00;;;;;19.15;26.85;98631.97;4976118;28;9680;-46
2021/05/10 03:55:14;;;;;;;;;2.00;2.00;;;;;19.14;26.96;98631.19;4975471;28;8790;-46
2021/05/10 03:57:39;;;;;;;;;1.60;1.60;;;;;19.14;26.96;98636.66;4984370;28;8792;-46
2021/05/10 04:00:07;;;;;;;;;2.00;2.00;;;;;19.14;26.74;98639.41;4994858;28;8851;-46
2021/05/10 04:02:33;;;;;;;;;1.40;1.40;;;;;19.13;26.97;98637.78;4981379;28;8835;-46
2021/05/10 04:15:31;;;;;;;;;1.40;1.40;;;;;19.12;27.03;98628.03;4988930;28;8802;-46
2021/05/10 04:17:56;;;;;;;;;2.00;2.00;;;;;19.10;26.96;98638.47;4993674;28;8827;-45
2021/05/10 04:20:22;;;;;;;;;1.50;1.50;;;;;19.10;27.17;98646.69;4995064;28;8793;-46
2021/05/10 04:22:47;;;;;;;;;2.00;2.00;;;;;19.10;26.99;98643.94;5000949;28;8828;-46
2021/05/10 04:25:12;;;;;;;;;2.00;2.00;;;;;19.09;27.15;98640.44;4985088;28;8787;-46
2021/05/10 04:27:39;;;;;;;;;2.00;2.00;;;;;19.08;27.27;98640.78;4986802;28;9528;-46
2021/05/10 04:30:05;;;;;;;;;2.00;2.00;;;;;19.08;26.90;98636.13;4994879;28;8751;-46
2021/05/10 04:32:30;;;;;;;;;2.00;2.00;;;;;19.08;27.10;98632.56;4973018;28;8795;-46
2021/05/10 04:34:56;;;;;;;;;2.00;2.00;;;;;19.09;27.24;98639.66;4982313;28;8815;-46
2021/05/10 04:37:21;;;;;;;;;2.75;2.75;;;;;19.07;27.23;98631.00;4979459;28;8802;-45
2021/05/10 04:39:46;;;;;;;;;2.00;2.00;;;;;19.07;27.09;98637.25;4981736;28;8980;-46
2021/05/10 04:42:11;;;;;;;;;2.00;2.00;;;;;19.06;27.35;98641.13;4984331;28;8810;-46
2021/05/10 04:44:37;;;;;;;;;1.75;1.75;;;;;19.07;27.17;98633.75;4992971;28;8806;-46
2021/05/10 04:47:02;;;;;;;;;2.00;2.00;;;;;19.05;27.18;98625.88;4975235;28;8791;-46
2021/05/10 04:49:28;;;;;;;;;2.00;2.00;;;;;19.04;27.25;98635.22;4978461;28;8844;-46
2021/05/10 04:51:53;;;;;;;;;2.00;2.00;;;;;19.06;27.28;98638.38;4991093;28;8830;-46
2021/05/10 04:54:19;;;;;;;;;2.00;2.00;;;;;19.05;27.09;98645.00;4989234;28;8792;-46
2021/05/10 04:56:44;;;;;;;;;1.00;1.00;;;;;19.06;27.37;98645.81;4980752;28;8977;-45
2021/05/10 04:59:09;;;;;;;;;1.25;1.25;;;;;19.04;27.40;98648.09;4982774;28;8811;-46
2021/05/10 05:01:34;;;;;;;;;2.00;2.00;;;;;19.05;27.34;98655.13;4994942;28;8820;-46
2021/05/10 05:04:00;;;;;;;;;2.00;2.00;;;;;19.05;27.47;98652.41;4982151;28;9787;-46
2021/05/10 05:06:25;;;;;;;;;1.50;1.50;;;;;19.03;27.41;98652.78;4991002;28;8893;-46
2021/05/10 05:08:50;;;;;;;;;1.25;1.25;;;;;19.03;27.14;98646.50;4977252;28;8843;-46
2021/05/10 05:11:16;;;;;;;;;1.00;1.00;;;;;19.03;27.38;98649.22;4977857;28;8832;-46
2021/05/10 05:13:41;;;;;;;;;1.00;1.00;;;;;19.02;27.24;98651.16;4997031;28;8780;-46
2021/05/10 05:16:06;;;;;;;;;3.00;3.00;;;;;19.02;27.27;98653.13;4994806;28;8814;-46
2021/05/10 05:18:32;;;;;;;;;2.00;2.00;;;;;19.02;27.38;98655.84;4999049;28;8838;-46
2021/05/10 05:20:57;;;;;;;;;2.00;2.00;;;;;19.02;27.38;98642.19;4992230;28;8879;-46
2021/05/10 05:23:25;;;;;;;;;2.00;2.00;;;;;19.00;27.57;98648.00;4998066;28;8804;-46
2021/05/10 05:26:02;;;;;;;;;2.00;2.00;;;;;19.00;27.45;98647.22;4983461;28;9014;-46
2021/05/10 05:28:28;;;;;;;;;1.80;1.80;;;;;19.00;27.51;98645.25;4972746;28;8823;-47
2021/05/10 05:30:57;;;;;;;;;2.00;2.00;;;;;19.00;27.78;98649.94;4975264;28;8854;-46
2021/05/10 05:33:24;;;;;;;;;2.00;2.00;;;;;18.98;27.46;98650.28;4980436;28;8797;-46
2021/05/10 05:35:49;;;;;;;;;2.00;2.00;;;;;18.99;27.50;98651.06;4970600;28;8803;-46
2021/05/10 05:38:15;;;;;;;;;2.00;2.00;;;;;18.98;27.31;98652.19;4979421;28;8802;-46
2021/05/10 05:40:42;;;;;;;;;2.00;2.00;;;;;18.98;27.43;98658.47;4974665;28;8935;-46
2021/05/10 05:43:09;;;;;;;;;2.00;2.00;;;;;18.98;27.53;98660.41;4991421;28;8776;-46
2021/05/10 05:45:38;;;;;;;;;2.00;2.00;;;;;18.97;27.55;98658.84;4999282;28;8917;-46
2021/05/10 05:48:06;;;;;;;;;1.80;1.80;;;;;18.88;28.37;98657.03;4999033;28;8776;-46
2021/05/10 05:50:32;;;;;;;;;2.00;2.00;;;;;18.84;29.84;98666.28;4998464;28;8796;-46
2021/05/10 05:52:57;;;;;;;;;3.00;3.00;;;;;18.81;29.92;98650.56;4997220;28;8804;-46
2021/05/10 05:55:23;;;;;;;;;2.00;2.00;;;;;18.88;29.53;98662.50;4997939;28;8838;-46
2021/05/10 05:57:48;;;;;;;;;2.00;2.00;;;;;18.91;28.99;98664.53;4998468;28;8792;-46
2021/05/10 06:00:14;;;;;;;;;2.00;2.00;;;;;18.91;28.87;98655.56;5001490;28;8780;-47
2021/05/10 06:02:42;;;;;;;;;2.00;2.00;;;;;18.90;28.87;98657.47;4991360;28;8770;-46
2021/05/10 06:05:09;;;;;;;;;2.00;2.00;;;;;18.91;28.58;98653.59;4972762;28;8833;-46
2021/05/10 06:07:42;;;;;;;;;2.00;2.00;;;;;18.91;28.55;98656.34;4981752;28;8798;-46
2021/05/10 06:10:10;;;;;;;;;2.00;2.00;;;;;18.91;28.68;98656.34;4992706;28;8781;-47
2021/05/10 06:12:36;;;;;;;;;2.00;2.00;;;;;18.91;28.23;98663.75;4987775;28;8830;-46
2021/05/10 06:15:01;;;;;;;;;2.00;2.00;;;;;18.90;28.40;98667.63;4984374;28;8866;-46
2021/05/10 06:17:27;;;;;;;;;2.75;2.75;;;;;18.89;28.24;98683.22;4999960;28;11505;-46
2021/05/10 06:19:53;;;;;;;;;2.00;2.00;;;;;18.88;28.26;98672.63;4978322;28;8839;-46
2021/05/10 06:22:19;;;;;;;;;2.80;2.80;;;;;18.87;28.13;98681.97;4977506;28;8838;-47
2021/05/10 06:24:44;;;;;;;;;2.00;2.00;;;;;18.87;28.27;98671.03;4981061;28;8803;-46
2021/05/10 06:27:09;;;;;;;;;2.00;2.00;;;;;18.86;27.94;98672.19;4980614;28;9523;-46
2021/05/10 06:29:35;;;;;;;;;2.00;2.00;;;;;18.85;28.08;98667.84;4979504;28;8823;-46
2021/05/10 06:32:00;;;;;;;;;1.75;1.75;;;;;18.84;28.14;98672.53;4984564;28;9572;-46
2021/05/10 06:34:25;;;;;;;;;2.00;1.75;;;;;18.84;28.07;98672.53;4997486;28;9673;-46
2021/05/10 06:36:51;;;;;;;;;1.50;1.00;;;;;18.83;28.34;98673.66;5000856;28;8800;-47
2021/05/10 06:39:16;;;;;;;;;2.00;2.00;;;;;18.82;28.17;98674.81;4991262;28;8821;-46
2021/05/10 06:41:41;;;;;;;;;1.75;1.75;;;;;18.81;28.01;98677.88;4981173;28;8773;-46
2021/05/10 06:44:07;;;;;;;;;1.00;1.00;;;;;18.80;28.20;98682.50;4983629;28;8802;-46
2021/05/10 06:46:32;;;;;;;;;2.00;2.00;;;;;18.80;28.26;98690.72;4977812;28;8819;-46
2021/05/10 06:48:57;;;;;;;;;2.00;2.00;;;;;18.79;28.06;98686.41;4994388;28;8981;-47
2021/05/10 06:51:23;;;;;;;;;2.00;2.00;;;;;18.79;28.13;98686.41;4999657;28;8788;-46
2021/05/10 06:53:48;;;;;;;;;2.00;2.00;;;;;18.77;27.98;98682.41;4999239;28;8902;-46
2021/05/10 06:56:13;;;;;;;;;2.00;2.00;;;;;18.76;28.04;98692.56;5002821;28;8806;-46
2021/05/10 06:58:39;;;;;;;;;1.00;1.00;;;;;18.76;28.08;98689.81;4999608;28;8800;-46
2021/05/10 07:01:04;;;;;;;;;2.00;2.00;;;;;18.75;27.92;98688.25;4984201;28;8841;-46
2021/05/10 07:03:29;;;;;;;;;2.00;2.00;;;;;18.75;28.10;98685.53;4981876;28;8841;-46
2021/05/10 07:05:55;;;;;;;;;1.00;1.00;;;;;18.74;28.24;98689.38;4983098;28;8772;-46
2021/05/10 07:08:20;;;;;;;;;2.00;2.00;;;;;18.72;27.98;98684.25;5001481;28;8831;-46
2021/05/10 07:10:48;;;;;;;;;2.25;2.25;;;;;18.72;28.16;98687.00;4979498;28;8790;-47
2021/05/10 07:13:14;;;;;;;;;2.00;2.00;;;;;18.72;28.05;98687.00;4984079;28;8814;-46
2021/05/10 07:15:39;;;;;;;;;2.00;2.00;;;;;18.71;28.09;98690.88;4977747;28;8789;-47
2021/05/10 07:18:08;;;;;;;;;1.00;1.00;;;;;18.69;27.95;98690.41;4985496;28;8796;-47
2021/05/10 07:20:35;;;;;;;;;1.00;1.00;;;;;18.69;28.03;98687.66;5001662;28;9611;-46
2021/05/10 07:23:00;;;;;;;;;1.20;1.20;;;;;18.69;28.03;98687.66;4999737;28;8942;-46
2021/05/10 07:25:27;;;;;;;;;1.50;1.50;;;;;18.69;28.37;98684.16;5000656;28;8935;-47
2021/05/10 07:27:52;;;;;;;;;1.40;1.40;;;;;18.67;28.22;98679.03;4988350;28;8825;-47
2021/05/10 07:30:18;;;;;;;;;2.00;2.00;;;;;18.68;28.22;98677.09;4987626;28;8804;-47
2021/05/10 07:32:43;;;;;;;;;2.75;2.75;;;;;18.65;28.10;98675.06;4999879;28;8773;-46
2021/05/10 07:35:09;;;;;;;;;1.75;1.75;;;;;18.66;28.17;98679.38;5003038;28;9462;-46
2021/05/10 07:37:35;;;;;;;;;2.00;2.00;;;;;18.66;28.06;98671.19;4998310;28;8797;-47
2021/05/10 07:40:00;;;;;;;;;1.00;1.00;;;;;18.65;28.19;98677.81;4983949;28;8818;-46
2021/05/10 07:42:26;;;;;;;;;2.00;2.00;;;;;18.65;27.97;98677.81;4989034;28;9580;-46
2021/05/10 07:44:51;;;;;;;;;1.75;1.75;;;;;18.64;28.03;98687.13;4999285;28;8847;-46
2021/05/10 07:47:18;;;;;;;;;1.00;1.00;;;;;18.62;28.14;98675.75;5003832;28;8939;-46
2021/05/10 07:49:44;;;;;;;;;1.00;1.00;;;;;18.62;28.30;98678.47;4978337;28;9837;-47
2021/05/10 07:52:09;;;;;;;;;1.00;1.00;;;;;18.61;28.36;98674.97;4976372;28;8861;-46
2021/05/10 07:54:34;;;;;;;;;1.25;1.25;;;;;18.61;28.15;98682.34;4989201;28;8791;-46
2021/05/10 07:56:59;;;;;;;;;1.00;1.00;;;;;18.60;28.09;98683.50;5000081;28;8811;-46
2021/05/10 07:59:25;;;;;;;;;2.50;2.00;;;;;18.61;28.32;98679.63;4998442;28;10812;-46
2021/05/10 08:01:54;;;;;;;;;1.00;1.00;;;;;18.60;28.04;98686.22;4998911;28;8842;-46
2021/05/10 08:04:20;;;;;;;;;2.00;2.00;;;;;18.58;28.10;98680.31;4998132;28;8827;-46
2021/05/10 08:06:45;;;;;;;;;1.80;1.80;;;;;18.58;28.32;98669.41;4987993;28;8807;-47
2021/05/10 08:09:10;;;;;;;;;2.00;2.00;;;;;18.57;28.25;98682.25;4971013;28;8912;-47
2021/05/10 08:11:39;;;;;;;;;1.50;1.50;;;;;18.57;28.42;98673.25;4980430;28;9570;-46
2021/05/10 08:14:05;;;;;;;;;1.00;1.00;;;;;18.55;28.20;98677.13;4999704;28;8802;-46
2021/05/10 08:16:30;;;;;;;;;2.00;2.00;;;;;18.55;28.27;98671.66;5001077;28;8824;-46
2021/05/10 08:18:56;;;;;;;;;1.00;1.00;;;;;18.55;28.27;98671.66;4998365;28;9359;-46
2021/05/10 08:21:21;;;;;;;;;1.50;1.50;;;;;18.54;28.37;98674.75;4985594;28;8837;-47
2021/05/10 08:23:46;;;;;;;;;1.00;1.00;;;;;18.54;28.24;98661.88;4977818;28;8844;-46
2021/05/10 08:26:12;;;;;;;;;1.00;1.00;;;;;18.53;28.22;98664.97;4979546;28;8973;-46
2021/05/10 08:28:37;;;;;;;;;1.00;1.00;;;;;18.53;28.43;98671.22;4979181;28;8819;-46
2021/05/10 08:31:04;;;;;;;;;2.00;2.00;;;;;18.52;28.38;98660.63;4976304;28;8778;-47
2021/05/10 08:33:30;;;;;;;;;2.00;1.40;;;;;18.51;28.30;98664.53;4977208;28;8767;-46
2021/05/10 08:35:56;;;;;;;;;1.20;1.20;;;;;18.50;28.34;98671.91;4984342;28;9582;-46
2021/05/10 08:38:21;;;;;;;;;1.00;1.00;;;;;18.51;28.55;98672.72;4997607;28;8800;-46
2021/05/10 08:40:47;;;;;;;;;1.50;1.00;;;;;18.49;28.36;98670.31;4998257;28;8819;-47
2021/05/10 08:43:20;;;;;;;;;2.00;2.00;;;;;18.48;28.15;98676.13;4983911;28;8790;-46
2021/05/10 08:45:52;;;;;;;;;1.00;1.00;;;;;18.48;28.38;98679.63;4990356;28;9814;-46
2021/05/10 08:48:18;;;;;;;;;1.80;1.80;;;;;18.48;28.39;98674.19;4997434;28;8801;-47
2021/05/10 08:50:43;;;;;;;;;1.00;1.00;;;;;18.47;28.42;98674.56;4995619;28;8757;-46
2021/05/10 08:53:12;;;;;;;;;2.00;2.00;;;;;18.45;28.22;98674.06;4997264;28;8820;-46
2021/05/10 08:55:37;;;;;;;;;1.80;1.80;;;;;18.45;28.24;98672.16;4996086;28;9669;-46
2021/05/10 08:58:04;;;;;;;;;1.00;1.00;;;;;18.46;28.52;98668.28;4996818;28;8861;-46
2021/05/10 09:00:30;;;;;;;;;1.20;1.20;;;;;18.45;28.36;98671.34;4998552;28;8780;-47
2021/05/10 09:03:10;;;;;;;;;1.00;1.00;;;;;18.44;28.30;98670.56;4992182;28;8771;-46
2021/05/10 09:05:50;;;;;;;;;1.00;1.00;;;;;18.44;28.73;98669.78;4974954;28;8836;-47
2021/05/10 09:08:15;;;;;;;;;1.40;1.40;;;;;18.43;28.44;98674.41;4979726;28;8791;-46
2021/05/10 09:10:41;;;;;;;;;2.00;2.00;;;;;18.44;28.34;98669.78;4982088;28;8803;-46
2021/05/10 09:13:07;;;;;;;;;1.00;1.00;;;;;18.43;28.62;98665.44;4978431;28;8847;-46
2021/05/10 09:15:34;;;;;;;;;1.75;1.75;;;;;18.42;28.63;98669.31;4977419;28;8814;-46
2021/05/10 09:18:05;;;;;;;;;1.00;1.00;;;;;18.41;28.54;98668.50;4981478;28;8759;-46
2021/05/10 09:20:33;;;;;;;;;2.00;2.00;;;;;18.40;28.37;98664.19;4979422;28;8806;-46
2021/05/10 09:23:09;;;;;;;;;1.00;1.00;;;;;18.40;28.64;98666.94;4981085;28;8936;-46
2021/05/10 09:25:37;;;;;;;;;1.00;1.00;;;;;18.40;28.54;98672.41;4995460;28;8800;-46
2021/05/10 09:28:13;;;;;;;;;1.00;1.00;;;;;18.39;28.57;98675.47;4998286;28;8797;-46
2021/05/10 09:30:41;;;;;;;;;2.00;2.00;;;;;18.39;28.41;98668.06;4999303;28;8817;-46
2021/05/10 09:33:15;;;;;;;;;1.00;1.00;;;;;18.37;28.59;98667.63;4988750;28;8794;-46
2021/05/10 09:35:40;;;;;;;;;2.00;2.00;;;;;18.38;28.76;98671.13;4979252;28;8754;-46
2021/05/10 09:38:07;;;;;;;;;1.00;1.00;;;;;18.37;28.78;98673.06;4997146;28;8913;-46
2021/05/10 09:40:51;;;;;;;;;1.40;1.40;;;;;18.36;28.78;98674.19;4998395;28;8927;-47
2021/05/10 09:43:19;;;;;;;;;1.00;1.00;;;;;18.37;28.62;98675.00;4996801;28;8830;-46
2021/05/10 09:45:51;;;;;;;;;1.00;1.00;;;;;18.36;28.60;98674.19;4999040;28;8911;-46
2021/05/10 09:48:22;;;;;;;;;1.40;1.40;;;;;18.35;28.70;98669.91;4996961;28;8795;-46
2021/05/10 09:50:53;;;;;;;;;1.00;1.00;;;;;18.33;28.74;98672.97;4991916;28;8854;-46
2021/05/10 09:53:26;;;;;;;;;1.60;1.60;;;;;18.33;28.59;98674.91;4977218;28;9024;-46
2021/05/10 09:55:53;;;;;;;;;1.40;1.40;;;;;18.33;28.63;98674.91;4977780;28;8978;-46
2021/05/10 09:58:21;;;;;;;;;2.00;1.00;;;;;18.33;28.67;98680.38;4976972;28;8810;-46
2021/05/10 10:00:52;;;;;;;;;1.00;1.00;;;;;18.33;28.65;98677.63;4977356;28;8791;-46
2021/05/10 10:03:29;;;;;;;;;1.00;1.00;;;;;18.30;28.76;98676.38;4978850;28;8810;-46
2021/05/10 10:06:00;;;;;;;;;1.00;1.00;;;;;18.31;28.76;98674.44;4979115;28;8899;-46
2021/05/10 10:08:26;;;;;;;;;1.00;1.00;;;;;18.31;28.64;98677.16;4976846;28;8827;-46
2021/05/10 10:10:52;;;;;;;;;1.00;1.00;;;;;18.31;28.82;98677.97;4978493;28;8810;-46
2021/05/10 10:13:19;;;;;;;;;2.00;2.00;;;;;18.29;28.74;98674.81;4978088;28;8819;-46
2021/05/10 10:15:48;;;;;;;;;1.00;1.00;;;;;18.30;28.77;98675.59;4977222;28;8827;-46
2021/05/10 10:18:21;;;;;;;;;1.00;1.00;;;;;18.29;28.73;98672.06;4987107;28;8773;-46
2021/05/10 10:20:48;;;;;;;;;1.00;1.00;;;;;18.28;28.85;98673.19;4997492;28;8771;-46
2021/05/10 10:23:16;;;;;;;;;1.00;1.00;;;;;18.28;28.81;98656.03;4999138;28;8861;-47
2021/05/10 10:25:43;;;;;;;;;1.00;1.00;;;;;18.27;28.70;98659.88;4997158;28;8787;-46
2021/05/10 10:28:09;;;;;;;;;1.00;1.00;;;;;18.27;28.83;98665.34;5000660;28;8815;-46
2021/05/10 10:30:40;;;;;;;;;1.00;1.00;;;;;18.26;28.99;98661.84;4990171;28;8803;-47
2021/05/10 10:33:11;;;;;;;;;1.00;1.00;;;;;18.26;28.92;98663.78;4986621;28;8930;-46
2021/05/10 10:35:41;;;;;;;;;1.00;1.00;;;;;18.27;28.81;98659.88;4997653;28;8838;-46
2021/05/10 10:38:07;;;;;;;;;1.00;1.00;;;;;18.25;28.75;98673.88;4983204;28;8803;-46
2021/05/10 10:40:32;;;;;;;;;1.00;1.00;;;;;18.25;28.91;98690.25;4979226;28;8819;-46
2021/05/10 10:43:20;;;;;;;;;1.00;1.00;;;;;18.24;28.84;98680.50;4992125;28;8800;-46
2021/05/10 10:46:18;;;;;;;;;1.40;1.40;;;;;18.23;28.92;98676.16;4999664;28;8800;-46
2021/05/10 10:48:48;;;;;;;;;1.00;1.00;;;;;18.24;28.80;98676.94;4999221;28;8894;-46
2021/05/10 10:51:15;;;;;;;;;2.40;2.00;;;;;18.22;28.94;98666.38;4999388;28;8934;-46
2021/05/10 10:53:53;;;;;;;;;1.00;1.00;;;;;18.23;28.93;98664.44;4995051;28;8786;-46
2021/05/10 10:56:51;;;;;;;;;1.00;1.00;;;;;18.22;29.10;98668.31;4981528;28;8876;-45
2021/05/10 10:59:23;;;;;;;;;1.00;1.00;;;;;18.22;28.98;98666.38;5006624;28;8805;-47
2021/05/10 11:01:48;;;;;;;;;1.00;1.00;;;;;18.21;29.03;98664.78;5000730;28;8855;-46
2021/05/10 11:04:43;;;;;;;;;1.75;1.75;;;;;18.20;29.08;98652.28;4999675;28;8826;-46
2021/05/10 11:07:09;;;;;;;;;1.00;1.00;;;;;18.21;28.73;98669.47;4996617;28;8788;-46
2021/05/10 11:09:46;;;;;;;;;1.00;1.00;;;;;18.20;28.99;98676.84;4998655;28;8794;-46
2021/05/10 11:13:07;;;;;;;;;1.60;1.60;;;;;18.20;29.08;98671.38;5000911;28;8784;-46
2021/05/10 11:15:32;;;;;;;;;1.20;1.20;;;;;18.19;28.96;98682.63;4973292;28;8968;-46
2021/05/10 11:17:57;;;;;;;;;1.25;1.00;;;;;18.18;28.96;98679.13;4979830;28;8816;-47
2021/05/10 11:20:37;;;;;;;;;1.00;1.00;;;;;18.17;28.86;98672.88;5000348;28;8794;-46
2021/05/10 11:23:21;;;;;;;;;1.00;1.00;;;;;18.17;29.04;98678.31;4999627;28;8828;-46
2021/05/10 11:25:47;;;;;;;;;1.00;1.00;;;;;18.15;29.12;98663.41;4998790;28;9549;-46
2021/05/10 11:28:25;;;;;;;;;1.00;1.00;;;;;18.16;29.04;98671.25;4999061;28;8795;-46
2021/05/10 11:31:14;;;;;;;;;1.00;1.00;;;;;18.17;28.96;98672.09;4985976;28;8918;-46
2021/05/10 11:33:51;;;;;;;;;1.00;1.00;;;;;18.16;29.01;98681.41;4978516;28;8785;-46
2021/05/10 11:36:24;;;;;;;;;1.60;1.60;;;;;18.13;29.26;98669.25;4981783;28;9760;-46
2021/05/10 11:38:56;;;;;;;;;1.00;1.00;;;;;18.14;29.16;98676.28;5000142;28;8736;-46
2021/05/10 11:41:28;;;;;;;;;1.60;1.60;;;;;18.15;28.98;98674.34;4998841;28;8831;-46
2021/05/10 11:43:57;;;;;;;;;1.00;1.00;;;;;18.15;29.02;98674.34;5002070;28;8788;-46
2021/05/10 11:46:53;;;;;;;;;1.00;1.00;;;;;18.13;29.02;98668.44;5000469;28;8816;-46
2021/05/10 11:49:32;;;;;;;;;1.00;1.00;;;;;18.13;29.14;98671.16;4994033;28;8793;-46
2021/05/10 11:52:04;;;;;;;;;2.00;2.00;;;;;18.14;29.19;98670.03;4997533;28;8811;-46
2021/05/10 11:54:30;;;;;;;;;1.00;1.00;;;;;18.12;29.11;98667.63;4990597;28;8799;-47